Thunderstorms From: 20-05-2018 15:00 Until: 21-05-2018 15:00 warning for: Thunderstorms Level: Yellow info button

Although rather usual in this region, locally or potentially dangerous phenomena are expected. (such as local winds, summer thunderstorms, rising streams or high waves) Be aware and pay attention to the latest weather updates, especially if you carry out activities exposed to weather or close to a stream or shoreline. 


Meteo18 Weather Cam more information Meteo18 Weather Cam


warning for Thunderstorms more information blitzortung!


Rain radar more information rain snow radar


Visit our other weather sites:

Template documentation
and downloads

And another site



Weather Underground History page Text

Daily Summary for October 5, 2017 Units:  Metric    English   Both
« Previous Day
Next Day »
Daily Weekly Monthly Yearly Custom
  High: Low: Average:
Temperature: -17.8 °C -15.2 °C -11.1 °C
Dew Point: -17.8 °C -15.6 °C -12.6 °C
Humidity: Humidity % 54 % 84 %
Wind Speed: 0 km/h 0 km/h 9 km/h
Wind Gust: 0 km/h - -
Wind:- - WSW
Pressure: 0 hPa 34554.1 hPa -
Precipitation: 12.7 mm    
Historical Graphs
 
 
Tabular Data for October 5, 2017
Time Temperature Dew Point Pressure Wind Wind Speed Wind Gust Humidity Rainfall Rate (Hourly)
-17.8 °C -17.8 °C 0 hPa Calm     Humidity % 0 mm
00:02 -12.9 °C -13.4 °C 34716.7 hPa Calm   2.6 km/h 94 % 0 mm
00:07 -12.9 °C -13.4 °C 34716.7 hPa Calm   2.6 km/h 94 % 0 mm
00:12 -12.9 °C -13.4 °C 34716.7 hPa Calm   2.6 km/h 94 % 0 mm
00:17 -12.9 °C -13.4 °C 34716.7 hPa Calm   2.6 km/h 94 % 0 mm
00:32 -12.9 °C -13.4 °C 34716.7 hPa Calm   2.6 km/h 94 % 0 mm
00:42 -13 °C -13.5 °C 34716.7 hPa Calm     94 % 0 mm
00:47 -13 °C -13.5 °C 34716.7 hPa Calm     94 % 0 mm
00:52 -12.9 °C -13.4 °C 34716.7 hPa Calm     94 % 0 mm
00:57 -13 °C -13.5 °C 34716.7 hPa Calm     94 % 0 mm
01:07 -13.1 °C -13.7 °C 34703.1 hPa Calm     93 % 0 mm
01:12 -13.2 °C -13.8 °C 34716.7 hPa Calm     93 % 0 mm
01:22 -13.2 °C -13.7 °C 34703.1 hPa Calm     94 % 0 mm
01:27 -13.3 °C -13.8 °C 34703.1 hPa Calm     94 % 0 mm
01:32 -13.4 °C -13.9 °C 34703.1 hPa Calm     94 % 0 mm
01:37 -13.4 °C -13.9 °C 34703.1 hPa Calm     94 % 0 mm
01:42 -13.3 °C -13.7 °C 34703.1 hPa Calm     95 % 0 mm
01:52 -13.2 °C -13.6 °C 34703.1 hPa Calm     95 % 0 mm
01:57 -13.3 °C -13.8 °C 34703.1 hPa Calm     94 % 0 mm
02:02 -13.4 °C -13.9 °C 34703.1 hPa Calm     94 % 0 mm
02:07 -13.4 °C -13.8 °C 34703.1 hPa Calm     95 % 0 mm
02:12 -13.4 °C -13.9 °C 34703.1 hPa Calm     94 % 0 mm
02:17 -13.6 °C -14.1 °C 34703.1 hPa Calm     94 % 0 mm
02:22 -13.6 °C -13.9 °C 34703.1 hPa Calm     95 % 0 mm
02:32 -13.6 °C -13.9 °C 34703.1 hPa Calm     95 % 0 mm
02:37 -13.7 °C -14.1 °C 34703.1 hPa Calm     95 % 0 mm
02:42 -13.8 °C -14.2 °C 34703.1 hPa Calm     95 % 0 mm
02:47 -13.8 °C -14.2 °C 34693 hPa Calm     95 % 0 mm
02:52 -13.9 °C -14.3 °C 34693 hPa Calm     95 % 0 mm
02:57 -13.8 °C -14.2 °C 34703.1 hPa Calm     96 % 0 mm
03:02 -13.9 °C -14.3 °C 34693 hPa Calm     95 % 0 mm
03:07 -13.9 °C -14.3 °C 34693 hPa Calm     96 % 0 mm
03:12 -13.9 °C -14.3 °C 34693 hPa Calm     96 % 0 mm
03:17 -13.9 °C -14.3 °C 34693 hPa Calm     95 % 0 mm
03:22 -14.1 °C -14.4 °C 34682.8 hPa Calm     95 % 0 mm
03:27 -14.1 °C -14.5 °C 34682.8 hPa Calm     95 % 0 mm
03:32 -14.1 °C -14.4 °C 34682.8 hPa Calm     96 % 7.62 mm
03:37 -14.2 °C -14.5 °C 34682.8 hPa Calm     96 % 7.62 mm
03:42 -14.2 °C -14.5 °C 34682.8 hPa Calm     96 % 7.62 mm
03:47 -14.2 °C -14.5 °C 34682.8 hPa Calm     96 % 7.62 mm
03:52 -14.1 °C -14.4 °C 34669.3 hPa Calm     96 % 7.62 mm
03:57 -14.1 °C -14.4 °C 34669.3 hPa Calm     96 % 7.62 mm
04:02 -13.9 °C -14.2 °C 34669.3 hPa Calm     97 % 7.62 mm
04:07 -14.1 °C -14.4 °C 34669.3 hPa Calm     96 % 7.62 mm
04:12 -14.1 °C -14.4 °C 34659.1 hPa Calm     96 % 7.62 mm
04:17 -14.1 °C -14.4 °C 34659.1 hPa Calm     96 % 7.62 mm
04:22 -14.1 °C -14.4 °C 34659.1 hPa Calm     96 % 7.62 mm
04:32 -14.2 °C -14.6 °C 34659.1 hPa Calm     96 % 0 mm
04:37 -14.2 °C -14.6 °C 34659.1 hPa Calm     96 % 0 mm
04:42 -14.4 °C -14.8 °C 34659.1 hPa Calm     95 % 0 mm
04:47 -14.5 °C -14.9 °C 34659.1 hPa Calm     95 % 0 mm
04:52 -14.6 °C -14.9 °C 34659.1 hPa Calm     96 % 0 mm
05:02 -14.5 °C -14.8 °C 34645.6 hPa Calm     96 % 0 mm
05:22 -14.1 °C -14.3 °C 34659.1 hPa Calm     97 % 0 mm
05:27 -14.1 °C -14.3 °C 34659.1 hPa Calm     97 % 0 mm
05:32 -13.9 °C -14.2 °C 34645.6 hPa Calm     97 % 0 mm
05:37 -14 °C -14.2 °C 34645.6 hPa Calm     97 % 0 mm
05:42 -14 °C -14.2 °C 34645.6 hPa Calm     97 % 0 mm
05:47 -13.9 °C -14.2 °C 34645.6 hPa Calm     97 % 0 mm
05:52 -14 °C -14.2 °C 34645.6 hPa Calm     97 % 0 mm
05:57 -14.2 °C -14.5 °C 34645.6 hPa Calm     96 % 0 mm
06:02 -14.2 °C -14.6 °C 34645.6 hPa Calm     96 % 0 mm
06:12 -14.3 °C -14.7 °C 34645.6 hPa Calm     96 % 0 mm
06:17 -14.4 °C -14.6 °C 34645.6 hPa Calm     97 % 0 mm
06:22 -14.4 °C -14.6 °C 34645.6 hPa Calm     97 % 0 mm
06:32 -14.6 °C -14.9 °C 34645.6 hPa Calm     96 % 0 mm
06:42 -14.8 °C -15.2 °C 34645.6 hPa Calm     96 % 0 mm
06:52 -14.9 °C -15.2 °C 34645.6 hPa Calm     96 % 0 mm
07:02 -15.1 °C -15.4 °C 34645.6 hPa Calm     96 % 0 mm
07:07 -15.2 °C -15.5 °C 34645.6 hPa Calm     96 % 0 mm
07:12 -15.2 °C -15.6 °C 34645.6 hPa Calm     96 % 0 mm
07:17 -15.2 °C -15.4 °C 34645.6 hPa Calm     97 % 0 mm
07:22 -15.2 °C -15.4 °C 34645.6 hPa Calm     97 % 0 mm
07:32 -15.2 °C -15.4 °C 34645.6 hPa Calm     97 % 0 mm
07:37 -15.1 °C -15.3 °C 34645.6 hPa Calm     97 % 0 mm
07:42 -15.2 °C -15.4 °C 34635.4 hPa Calm     97 % 0 mm
07:52 -15.2 °C -15.4 °C 34635.4 hPa Calm     97 % 0 mm
07:57 -15.2 °C -15.4 °C 34635.4 hPa Calm   2.6 km/h 97 % 0 mm
08:02 -15.2 °C -15.4 °C 34635.4 hPa Calm   2.6 km/h 97 % 0 mm
08:12 -14.9 °C -15.1 °C 34635.4 hPa South 2.6 km/h 5.1 km/h 97 % 0 mm
08:17 -14.6 °C -14.8 °C 34635.4 hPa SW 5.1 km/h 7.7 km/h 97 % 0 mm
08:22 -14.3 °C -14.5 °C 34635.4 hPa SW 2.6 km/h 10.3 km/h 97 % 0 mm
08:32 -14 °C -14.2 °C 34635.4 hPa SW 2.6 km/h 12.9 km/h 98 % 0 mm
08:42 -14.1 °C -14.3 °C 34635.4 hPa Calm   12.9 km/h 97 % 0 mm
08:47 -14.3 °C -14.6 °C 34635.4 hPa Calm   10.3 km/h 97 % 0 mm
08:52 -14.4 °C -14.6 °C 34635.4 hPa Calm   2.6 km/h 97 % 0 mm
08:57 -14.6 °C -14.8 °C 34635.4 hPa Calm   2.6 km/h 97 % 0 mm
09:12 -14.1 °C -14.3 °C 34635.4 hPa Calm   2.6 km/h 97 % 0 mm
09:17 -13.9 °C -14.2 °C 34635.4 hPa South 5.1 km/h 5.1 km/h 97 % 0 mm
09:22 -13.8 °C -14 °C 34635.4 hPa SSE 5.1 km/h 7.7 km/h 97 % 0 mm
09:32 -13.6 °C -13.7 °C 34635.4 hPa SSW 5.1 km/h 10.3 km/h 98 % 0 mm
09:42 -13.4 °C -13.6 °C 34635.4 hPa South 5.1 km/h 15.6 km/h 98 % 0 mm
09:47 -13.3 °C -13.4 °C 34635.4 hPa SSE 7.7 km/h 15.6 km/h 98 % 0 mm
09:52 -13.1 °C -13.3 °C 34635.4 hPa SSW 5.1 km/h 15.6 km/h 98 % 0 mm
09:57 -12.9 °C -13.1 °C 34635.4 hPa South 2.6 km/h 12.9 km/h 98 % 0 mm
10:02 -12.6 °C -12.8 °C 34635.4 hPa SSE 2.6 km/h 12.9 km/h 98 % 0 mm
10:07 -12.4 °C -12.6 °C 34635.4 hPa WSW 2.6 km/h 12.9 km/h 98 % 0 mm
10:17 -12.3 °C -12.6 °C 34645.6 hPa SSW 10.3 km/h 12.9 km/h 97 % 0 mm
10:22 -12.2 °C -12.4 °C 34645.6 hPa South 7.7 km/h 15.6 km/h 97 % 0 mm
10:32 -12 °C -12.3 °C 34635.4 hPa SW 7.7 km/h 15.6 km/h 97 % 0 mm
10:37 -11.9 °C -12.2 °C 34635.4 hPa SW 10.3 km/h 15.6 km/h 97 % 0 mm
10:42 -11.9 °C -12.2 °C 34635.4 hPa SW 5.1 km/h 15.6 km/h 96 % 0 mm
10:47 -11.8 °C -12.1 °C 34635.4 hPa West 5.1 km/h 15.6 km/h 97 % 7.62 mm
10:52 -11.6 °C -11.9 °C 34635.4 hPa SW 15.6 km/h 15.6 km/h 97 % 7.62 mm
10:57 -11.6 °C -12 °C 34645.6 hPa WSW 7.7 km/h 20.8 km/h 95 % 7.62 mm
11:02 -11.6 °C -12.1 °C 34645.6 hPa SW 10.3 km/h 20.8 km/h 94 % 7.62 mm
11:17 -11.2 °C -11.9 °C 34635.4 hPa SW 5.1 km/h 25.9 km/h 92 % 7.62 mm
11:22 -11.2 °C -12.1 °C 34645.6 hPa SSE 12.9 km/h 31.1 km/h 90 % 7.62 mm
11:27 -11.1 °C -11.9 °C 34645.6 hPa WSW 15.6 km/h 31.1 km/h 90 % 7.62 mm
11:32 -10.9 °C -11.9 °C 34635.4 hPa WSW 10.3 km/h 31.1 km/h 89 % 7.62 mm
11:42 -10.8 °C -11.8 °C 34635.4 hPa SW 20.8 km/h 23.3 km/h 88 % 0 mm
11:47 -10.8 °C -11.9 °C 34635.4 hPa SW 12.9 km/h 23.3 km/h 87 % 0 mm
11:52 -10.6 °C -11.8 °C 34635.4 hPa SW 12.9 km/h 23.3 km/h 87 % 0 mm
12:02 -10.4 °C -11.7 °C 34635.4 hPa SW 18.2 km/h 23.3 km/h 86 % 0 mm
12:12 -10.1 °C -11.7 °C 34635.4 hPa SW 15.6 km/h 31.1 km/h 82 % 0 mm
12:17 -9.9 °C -11.4 °C 34635.4 hPa WSW 18.2 km/h 31.1 km/h 84 % 0 mm
12:27 -9.8 °C -11.6 °C 34625.2 hPa SW 12.9 km/h 33.6 km/h 81 % 0 mm
12:32 -9.6 °C -11.2 °C 34611.7 hPa SW 25.9 km/h 33.6 km/h 82 % 0 mm
12:42 -9.3 °C -11.5 °C 34625.2 hPa WSW 23.3 km/h 38.8 km/h 77 % 0 mm
12:47 -9.3 °C -11.6 °C 34625.2 hPa SW 18.2 km/h 38.8 km/h 76 % 0 mm
12:52 -9.1 °C -11.4 °C 34625.2 hPa SW 10.3 km/h 33.6 km/h 76 % 0 mm
13:02 -8.9 °C -11.6 °C 34635.4 hPa West 15.6 km/h 33.6 km/h 73 % 0 mm
13:07 -8.8 °C -11.7 °C 34635.4 hPa WSW 20.8 km/h 31.1 km/h 71 % 0 mm
13:12 -8.7 °C -11.5 °C 34635.4 hPa WNW 23.3 km/h 38.8 km/h 72 % 0 mm
13:17 -8.6 °C -11.5 °C 34635.4 hPa WSW 33.6 km/h 38.8 km/h 71 % 0 mm
13:22 -8.6 °C -11.7 °C 34625.2 hPa WSW 10.3 km/h 36.2 km/h 69 % 0 mm
13:27 -8.4 °C -11.6 °C 34625.2 hPa WSW 7.7 km/h 36.2 km/h 69 % 0 mm
13:32 -8.4 °C -11.8 °C 34611.7 hPa SW 2.6 km/h 36.2 km/h 67 % 0 mm
13:37 -8.3 °C -11.8 °C 34611.7 hPa WSW 10.3 km/h 36.2 km/h 66 % 0 mm
13:42 -8.1 °C -11.6 °C 34611.7 hPa SW 25.9 km/h 33.6 km/h 67 % 0 mm
13:47 -8.1 °C -11.6 °C 34611.7 hPa SSW 18.2 km/h 33.6 km/h 66 % 0 mm
13:57 -7.8 °C -12.2 °C 34611.7 hPa WSW 18.2 km/h 33.6 km/h 60 % 0 mm
14:02 -7.9 °C -12.1 °C 34611.7 hPa West 20.8 km/h 28.5 km/h 61 % 0 mm
14:07 -7.9 °C -12.3 °C 34611.7 hPa SW 15.6 km/h 36.2 km/h 60 % 0 mm
14:12 -7.8 °C -12 °C 34601.5 hPa WSW 20.8 km/h 36.2 km/h 61 % 0 mm
14:17 -7.7 °C -12.1 °C 34601.5 hPa West 12.9 km/h 36.2 km/h 60 % 0 mm
14:22 -7.7 °C -12.4 °C 34601.5 hPa West 25.9 km/h 31.1 km/h 58 % 0 mm
14:27 -7.8 °C -12.5 °C 34591.4 hPa WSW 18.2 km/h 36.2 km/h 58 % 0 mm
14:32 -7.7 °C -12.1 °C 34591.4 hPa WSW 23.3 km/h 36.2 km/h 60 % 0 mm
14:37 -7.6 °C -12.3 °C 34591.4 hPa SW 12.9 km/h 36.2 km/h 58 % 0 mm
14:42 -7.6 °C -12.4 °C 34591.4 hPa WSW 15.6 km/h 28.5 km/h 57 % 0 mm
14:47 -7.6 °C -12.4 °C 34591.4 hPa WNW 10.3 km/h 36.2 km/h 57 % 0 mm
14:52 -7.6 °C -12.2 °C 34577.8 hPa WSW 7.7 km/h 36.2 km/h 58 % 0 mm
14:57 -7.4 °C -12.1 °C 34577.8 hPa West 20.8 km/h 31.1 km/h 58 % 0 mm
15:02 -7.4 °C -12.2 °C 34567.7 hPa WSW 25.9 km/h 28.5 km/h 57 % 0 mm
15:07 -7.3 °C -11.9 °C 34567.7 hPa SSW 10.3 km/h 31.1 km/h 59 % 0 mm
15:12 -7.3 °C -12.2 °C 34567.7 hPa SSW 18.2 km/h 33.6 km/h 57 % 0 mm
15:17 -7.3 °C -12.3 °C 34567.7 hPa West 23.3 km/h 33.6 km/h 56 % 0 mm
15:22 -7.3 °C -12.6 °C 34567.7 hPa WNW 7.7 km/h 33.6 km/h 54 % 0 mm
15:32 -7.1 °C -12.4 °C 34567.7 hPa WNW 12.9 km/h 28.5 km/h 54 % 0 mm
15:37 -7.1 °C -12.3 °C 34567.7 hPa WNW 18.2 km/h 33.6 km/h 55 % 0 mm
15:42 -7.1 °C -12.3 °C 34567.7 hPa NW 15.6 km/h 33.6 km/h 55 % 0 mm
15:47 -7 °C -11.7 °C 34567.7 hPa WSW 23.3 km/h 33.6 km/h 58 % 0 mm
15:52 -6.9 °C -11.9 °C 34567.7 hPa West 12.9 km/h 33.6 km/h 56 % 0 mm
15:57 -7 °C -12.2 °C 34567.7 hPa WSW 18.2 km/h 28.5 km/h 55 % 0 mm
16:02 -6.9 °C -12.1 °C 34567.7 hPa WNW 15.6 km/h 33.6 km/h 55 % 0 mm
16:12 -7.1 °C -12.1 °C 34567.7 hPa WNW 15.6 km/h 41.4 km/h 56 % 0 mm
16:17 -7.1 °C -11.9 °C 34567.7 hPa West 18.2 km/h 41.4 km/h 57 % 0 mm
16:27 -7.2 °C -11.6 °C 34567.7 hPa SW 23.3 km/h 31.1 km/h 60 % 0 mm
16:32 -7.1 °C -11.8 °C 34567.7 hPa WSW 18.2 km/h 33.6 km/h 58 % 0 mm
16:37 -7.1 °C -11.6 °C 34554.1 hPa West 20.8 km/h 33.6 km/h 59 % 0 mm
16:42 -7.1 °C -11.8 °C 34554.1 hPa West 10.3 km/h 33.6 km/h 58 % 0 mm
16:47 -7.2 °C -11.7 °C 34567.7 hPa WSW 20.8 km/h 31.1 km/h 59 % 0 mm
16:52 -7.2 °C -11.6 °C 34567.7 hPa WSW 25.9 km/h 31.1 km/h 60 % 0 mm
16:57 -7.3 °C -11.7 °C 34554.1 hPa WSW 10.3 km/h 33.6 km/h 60 % 0 mm
17:02 -7.4 °C -11.7 °C 34554.1 hPa West 23.3 km/h 33.6 km/h 61 % 0 mm
17:07 -7.4 °C -11.7 °C 34554.1 hPa WSW 18.2 km/h 31.1 km/h 61 % 0 mm
17:12 -7.4 °C -11.5 °C 34554.1 hPa WSW 12.9 km/h 31.1 km/h 62 % 0 mm
17:17 -7.3 °C -11.4 °C 34554.1 hPa West 18.2 km/h 31.1 km/h 62 % 0 mm
17:32 -7.3 °C -11.4 °C 34554.1 hPa West 12.9 km/h 36.2 km/h 62 % 0 mm
17:37 -7.4 °C -11.5 °C 34554.1 hPa NW 18.2 km/h 36.2 km/h 62 % 0 mm
17:42 -7.4 °C -11.4 °C 34567.7 hPa West 7.7 km/h 33.6 km/h 63 % 0 mm
17:47 -7.4 °C -11.4 °C 34567.7 hPa WNW 20.8 km/h 33.6 km/h 63 % 0 mm
17:52 -7.5 °C -11.5 °C 34554.1 hPa WSW 20.8 km/h 31.1 km/h 63 % 0 mm
17:57 -7.6 °C -11.4 °C 34554.1 hPa WNW 41.4 km/h 41.4 km/h 64 % 0 mm
18:07 -7.7 °C -11.4 °C 34554.1 hPa West 23.3 km/h 44.1 km/h 65 % 0 mm
18:12 -7.7 °C -11.3 °C 34554.1 hPa West 18.2 km/h 44.1 km/h 66 % 0 mm
18:17 -7.7 °C -11.3 °C 34554.1 hPa WSW 18.2 km/h 38.8 km/h 66 % 0 mm
18:22 -7.8 °C -11.3 °C 34554.1 hPa West 12.9 km/h 38.8 km/h 67 % 0 mm
18:32 -7.9 °C -11.2 °C 34554.1 hPa WNW 12.9 km/h 31.1 km/h 69 % 0 mm
18:42 -8.1 °C -11 °C 34554.1 hPa West 18.2 km/h 31.1 km/h 71 % 0 mm
18:47 -8.1 °C -10.9 °C 34554.1 hPa West 15.6 km/h 38.8 km/h 72 % 0 mm
18:52 -8.1 °C -10.9 °C 34554.1 hPa WSW 10.3 km/h 38.8 km/h 72 % 0 mm
19:02 -8.2 °C -10.9 °C 34554.1 hPa SW 15.6 km/h 23.3 km/h 73 % 0 mm
19:07 -8.3 °C -10.9 °C 34554.1 hPa West 10.3 km/h 23.3 km/h 74 % 0 mm
19:12 -8.3 °C -10.9 °C 34567.7 hPa WNW 7.7 km/h 23.3 km/h 74 % 0 mm
19:17 -8.3 °C -10.8 °C 34567.7 hPa WNW 7.7 km/h 23.3 km/h 75 % 0 mm
19:22 -8.4 °C -10.8 °C 34567.7 hPa West 7.7 km/h 23.3 km/h 76 % 0 mm
19:27 -8.4 °C -10.8 °C 34567.7 hPa West 23.3 km/h 25.9 km/h 76 % 0 mm
19:32 -8.5 °C -10.8 °C 34567.7 hPa WNW 23.3 km/h 31.1 km/h 77 % 0 mm
19:37 -8.6 °C -10.6 °C 34567.7 hPa WNW 10.3 km/h 36.2 km/h 79 % 0 mm
19:42 -8.7 °C -10.7 °C 34577.8 hPa WSW 7.7 km/h 36.2 km/h 80 % 0 mm
19:47 -8.8 °C -10.6 °C 34577.8 hPa West 12.9 km/h 38.8 km/h 82 % 0 mm
19:52 -8.9 °C -10.7 °C 34577.8 hPa NW 23.3 km/h 38.8 km/h 82 % 0 mm
19:57 -9.1 °C -10.7 °C 34577.8 hPa NW 20.8 km/h 46.7 km/h 83 % 0 mm
20:02 -9.2 °C -10.6 °C 34577.8 hPa West 25.9 km/h 46.7 km/h 85 % 0 mm
20:07 -9.3 °C -10.6 °C 34591.4 hPa WNW 18.2 km/h 41.4 km/h 86 % 0 mm
20:12 -9.5 °C -10.7 °C 34591.4 hPa WNW 12.9 km/h 44.1 km/h 87 % 0 mm
20:22 -9.6 °C -10.6 °C 34591.4 hPa West 5.1 km/h 36.2 km/h 89 % 0 mm
20:27 -9.7 °C -10.8 °C 34591.4 hPa WSW 20.8 km/h 31.1 km/h 88 % 0 mm
20:32 -9.7 °C -10.8 °C 34591.4 hPa WNW 23.3 km/h 33.6 km/h 88 % 0 mm
20:37 -9.7 °C -10.8 °C 34591.4 hPa WNW 12.9 km/h 33.6 km/h 88 % 0 mm
20:42 -9.8 °C -10.8 °C 34591.4 hPa WNW 10.3 km/h 33.6 km/h 89 % 0 mm
20:47 -9.8 °C -10.8 °C 34591.4 hPa WNW 20.8 km/h 33.6 km/h 89 % 0 mm
20:52 -9.9 °C -10.9 °C 34591.4 hPa WNW 15.6 km/h 28.5 km/h 89 % 0 mm
20:57 -9.9 °C -10.9 °C 34591.4 hPa West 18.2 km/h 28.5 km/h 89 % 0 mm
21:07 -9.9 °C -10.8 °C 34591.4 hPa Calm   33.6 km/h 90 % 0 mm
21:12 -9.9 °C -10.8 °C 34591.4 hPa North 23.3 km/h 23.3 km/h 90 % 0 mm
21:17 -9.9 °C -10.8 °C 34591.4 hPa NW 18.2 km/h 33.6 km/h 90 % 0 mm
21:22 -10 °C -10.8 °C 34591.4 hPa NW 20.8 km/h 33.6 km/h 91 % 0 mm
21:27 -10 °C -10.8 °C 34591.4 hPa WNW 7.7 km/h 33.6 km/h 91 % 0 mm
21:32 -10.1 °C -10.8 °C 34591.4 hPa WNW 7.7 km/h 31.1 km/h 92 % 0 mm
21:42 -10.1 °C -10.8 °C 34591.4 hPa WSW 12.9 km/h 23.3 km/h 92 % 0 mm
21:47 -10.1 °C -10.8 °C 34591.4 hPa Calm   23.3 km/h 92 % 0 mm
21:52 -10.1 °C -10.8 °C 34591.4 hPa WNW 5.1 km/h 23.3 km/h 92 % 0 mm
22:02 -10.2 °C -10.8 °C 34591.4 hPa NNW 12.9 km/h 28.5 km/h 93 % 0 mm
22:12 -10.2 °C -10.8 °C 34591.4 hPa NNW 5.1 km/h 31.1 km/h 93 % 0 mm
22:17 -10.2 °C -10.8 °C 34601.5 hPa WSW 15.6 km/h 31.1 km/h 93 % 0 mm
22:22 -10.2 °C -10.8 °C 34601.5 hPa WNW 10.3 km/h 25.9 km/h 93 % 0 mm
22:27 -10.2 °C -10.8 °C 34601.5 hPa NNW 12.9 km/h 28.5 km/h 93 % 0 mm
22:32 -10.2 °C -10.7 °C 34601.5 hPa West 7.7 km/h 28.5 km/h 94 % 0 mm
22:37 -10.2 °C -10.7 °C 34601.5 hPa West 15.6 km/h 28.5 km/h 94 % 0 mm
22:42 -10.2 °C -10.7 °C 34601.5 hPa WNW 23.3 km/h 25.9 km/h 94 % 0 mm
22:47 -10.2 °C -10.7 °C 34601.5 hPa NW 12.9 km/h 25.9 km/h 94 % 0 mm
22:52 -10.2 °C -10.7 °C 34601.5 hPa WSW 5.1 km/h 25.9 km/h 94 % 0 mm
23:02 -10.2 °C -10.7 °C 34611.7 hPa WNW 12.9 km/h 20.8 km/h 94 % 0 mm
23:07 -10.2 °C -10.7 °C 34601.5 hPa West 7.7 km/h 20.8 km/h 94 % 0 mm
23:12 -10.3 °C -10.8 °C 34611.7 hPa WNW 10.3 km/h 23.3 km/h 94 % 0 mm
23:17 -10.2 °C -10.7 °C 34611.7 hPa WSW 12.9 km/h 23.3 km/h 94 % 0 mm
23:22 -10.3 °C -10.8 °C 34611.7 hPa NW 20.8 km/h 23.3 km/h 94 % 0 mm
23:27 -10.3 °C -10.8 °C 34611.7 hPa WNW 7.7 km/h 23.3 km/h 94 % 0 mm
23:37 -10.3 °C -10.8 °C 34611.7 hPa NW 7.7 km/h 20.8 km/h 94 % 0 mm
23:42 -10.3 °C -10.8 °C 34611.7 hPa SW 2.6 km/h 18.2 km/h 94 % 0 mm
23:47 -10.2 °C -10.7 °C 34611.7 hPa WNW 12.9 km/h 25.9 km/h 94 % 0 mm
23:52 -10.3 °C -10.8 °C 34611.7 hPa NW 7.7 km/h 25.9 km/h 94 % 0 mm
Meteo18
Compliments of Weather Underground - 4 mb

Script developed by  Jim McMurry - jmcmurry@mwt.net Adapted for the template by  Wim van der Kuil - Leuven-Template.eu

You find our weather info also at:

European Weather Network

Weather Underground

Equipment we use:

Weather-station
Davis Vue

Weather-program
Meteobridge

Weather-server
Raspberry PI 2 B+

Provider
1 and 1

Davis Vue

Meteobridge

Raspberry PI 2 B+

1 and 1